sensor_id;sensor_type;location;lat;lon;timestamp;pressure;altitude;pressure_sealevel;temperature;humidity
44148;BME280;29810;55.848;37.368;2023-04-27T00:02:33;98389.09;;;9.83;73.33
44148;BME280;29810;55.848;37.368;2023-04-27T00:05:35;98383.75;;;9.86;73.39
44148;BME280;29810;55.848;37.368;2023-04-27T00:08:38;98384.72;;;9.84;74.44
44148;BME280;29810;55.848;37.368;2023-04-27T00:11:40;98387.34;;;9.84;74.77
44148;BME280;29810;55.848;37.368;2023-04-27T00:14:41;98392.63;;;9.82;74.62
44148;BME280;29810;55.848;37.368;2023-04-27T00:17:42;98394.47;;;9.80;74.84
44148;BME280;29810;55.848;37.368;2023-04-27T00:20:43;98393.59;;;9.80;74.44
44148;BME280;29810;55.848;37.368;2023-04-27T00:23:45;98397.97;;;9.79;74.47
44148;BME280;29810;55.848;37.368;2023-04-27T00:26:46;98394.94;;;9.69;75.15
44148;BME280;29810;55.848;37.368;2023-04-27T00:29:47;98399.31;;;9.69;74.53
44148;BME280;29810;55.848;37.368;2023-04-27T00:32:48;98404.81;;;9.63;75.66
44148;BME280;29810;55.848;37.368;2023-04-27T00:35:50;98397.22;;;9.58;75.11
44148;BME280;29810;55.848;37.368;2023-04-27T00:38:51;98397.50;;;9.52;75.50
44148;BME280;29810;55.848;37.368;2023-04-27T00:41:53;98409.94;;;9.45;75.91
44148;BME280;29810;55.848;37.368;2023-04-27T00:44:56;98415.34;;;9.40;75.83
44148;BME280;29810;55.848;37.368;2023-04-27T00:47:57;98413.59;;;9.41;75.24
44148;BME280;29810;55.848;37.368;2023-04-27T00:50:59;98416.31;;;9.38;75.50
44148;BME280;29810;55.848;37.368;2023-04-27T00:54:01;98417.28;;;9.35;75.46
44148;BME280;29810;55.848;37.368;2023-04-27T00:57:04;98419.19;;;9.32;75.56
44148;BME280;29810;55.848;37.368;2023-04-27T01:00:06;98419.34;;;9.28;76.15
44148;BME280;29810;55.848;37.368;2023-04-27T01:03:08;98416.81;;;9.27;76.03
44148;BME280;29810;55.848;37.368;2023-04-27T01:06:10;98411.75;;;9.24;77.94
44148;BME280;29810;55.848;37.368;2023-04-27T01:09:11;98413.47;;;9.23;77.58
44148;BME280;29810;55.848;37.368;2023-04-27T01:12:13;98412.59;;;9.24;77.27
44148;BME280;29810;55.848;37.368;2023-04-27T01:15:16;98408.94;;;9.28;76.06
44148;BME280;29810;55.848;37.368;2023-04-27T01:18:17;98413.53;;;9.42;75.34
44148;BME280;29810;55.848;37.368;2023-04-27T01:21:19;98407.13;;;9.50;75.67
44148;BME280;29810;55.848;37.368;2023-04-27T01:24:20;98401.78;;;9.53;75.78
44148;BME280;29810;55.848;37.368;2023-04-27T01:27:21;98394.81;;;9.53;75.76
44148;BME280;29810;55.848;37.368;2023-04-27T01:30:23;98402.34;;;9.59;75.51
44148;BME280;29810;55.848;37.368;2023-04-27T01:33:25;98401.22;;;9.65;75.46
44148;BME280;29810;55.848;37.368;2023-04-27T01:36:27;98413.31;;;9.66;75.82
44148;BME280;29810;55.848;37.368;2023-04-27T01:39:30;98411.84;;;9.60;75.70
44148;BME280;29810;55.848;37.368;2023-04-27T01:42:31;98413.66;;;9.58;75.46
44148;BME280;29810;55.848;37.368;2023-04-27T01:45:32;98413.50;;;9.61;74.92
44148;BME280;29810;55.848;37.368;2023-04-27T01:48:34;98415.37;;;9.59;74.86
44148;BME280;29810;55.848;37.368;2023-04-27T01:51:35;98412.12;;;9.54;74.24
44148;BME280;29810;55.848;37.368;2023-04-27T01:54:37;98407.03;;;9.51;74.98
44148;BME280;29810;55.848;37.368;2023-04-27T01:57:40;98401.84;;;9.51;75.04
44148;BME280;29810;55.848;37.368;2023-04-27T02:00:41;98402.63;;;9.53;75.35
44148;BME280;29810;55.848;37.368;2023-04-27T02:03:43;98412.69;;;9.61;75.14
44148;BME280;29810;55.848;37.368;2023-04-27T02:06:45;98416.56;;;9.71;74.79
44148;BME280;29810;55.848;37.368;2023-04-27T02:09:47;98415.13;;;9.83;74.84
44148;BME280;29810;55.848;37.368;2023-04-27T02:12:48;98416.59;;;9.89;74.84
44148;BME280;29810;55.848;37.368;2023-04-27T02:15:50;98412.09;;;9.92;74.80
44148;BME280;29810;55.848;37.368;2023-04-27T02:18:51;98417.94;;;9.98;74.02
44148;BME280;29810;55.848;37.368;2023-04-27T02:21:53;98425.31;;;10.07;73.74
44148;BME280;29810;55.848;37.368;2023-04-27T02:24:56;98426.72;;;10.14;74.10
44148;BME280;29810;55.848;37.368;2023-04-27T02:27:57;98422.75;;;10.24;73.58
44148;BME280;29810;55.848;37.368;2023-04-27T02:30:58;98435.31;;;10.35;73.17
44148;BME280;29810;55.848;37.368;2023-04-27T02:33:59;98435.84;;;10.42;73.30
44148;BME280;29810;55.848;37.368;2023-04-27T02:37:01;98440.75;;;10.48;73.07
44148;BME280;29810;55.848;37.368;2023-04-27T02:40:02;98447.50;;;10.52;72.88
44148;BME280;29810;55.848;37.368;2023-04-27T02:43:06;98445.53;;;10.57;72.70
44148;BME280;29810;55.848;37.368;2023-04-27T02:46:08;98451.13;;;10.67;72.52
44148;BME280;29810;55.848;37.368;2023-04-27T02:49:09;98449.66;;;10.79;72.53
44148;BME280;29810;55.848;37.368;2023-04-27T02:52:11;98444.13;;;10.85;72.16
44148;BME280;29810;55.848;37.368;2023-04-27T02:55:12;98452.41;;;10.93;71.68
44148;BME280;29810;55.848;37.368;2023-04-27T02:58:14;98454.81;;;10.98;71.20
44148;BME280;29810;55.848;37.368;2023-04-27T03:01:16;98452.63;;;11.06;71.04
44148;BME280;29810;55.848;37.368;2023-04-27T03:04:18;98455.03;;;11.11;71.16
44148;BME280;29810;55.848;37.368;2023-04-27T03:07:20;98453.47;;;11.24;71.15
44148;BME280;29810;55.848;37.368;2023-04-27T03:10:21;98453.50;;;11.40;71.16
44148;BME280;29810;55.848;37.368;2023-04-27T03:13:23;98460.63;;;11.54;70.65
44148;BME280;29810;55.848;37.368;2023-04-27T03:16:24;98462.66;;;11.65;69.86
44148;BME280;29810;55.848;37.368;2023-04-27T03:19:25;98468.97;;;11.77;69.77
44148;BME280;29810;55.848;37.368;2023-04-27T03:22:26;98470.00;;;11.90;69.35
44148;BME280;29810;55.848;37.368;2023-04-27T03:25:28;98469.37;;;12.03;69.01
44148;BME280;29810;55.848;37.368;2023-04-27T03:28:29;98465.34;;;12.13;69.00
44148;BME280;29810;55.848;37.368;2023-04-27T03:31:30;98462.72;;;12.29;68.98
44148;BME280;29810;55.848;37.368;2023-04-27T03:34:31;98464.19;;;12.49;68.53
44148;BME280;29810;55.848;37.368;2023-04-27T03:37:33;98469.03;;;14.17;66.44
44148;BME280;29810;55.848;37.368;2023-04-27T03:40:34;98451.72;;;17.42;58.49
44148;BME280;29810;55.848;37.368;2023-04-27T03:43:36;98450.75;;;19.61;52.89
44148;BME280;29810;55.848;37.368;2023-04-27T03:46:37;98455.31;;;21.94;47.74
44148;BME280;29810;55.848;37.368;2023-04-27T03:49:39;98450.50;;;23.68;44.63
44148;BME280;29810;55.848;37.368;2023-04-27T03:52:40;98440.34;;;24.82;43.04
44148;BME280;29810;55.848;37.368;2023-04-27T03:55:42;98438.16;;;25.75;41.79
44148;BME280;29810;55.848;37.368;2023-04-27T03:58:44;98436.44;;;26.53;40.69
44148;BME280;29810;55.848;37.368;2023-04-27T04:01:47;98442.25;;;27.33;39.70
44148;BME280;29810;55.848;37.368;2023-04-27T04:04:48;98441.44;;;27.92;38.61
44148;BME280;29810;55.848;37.368;2023-04-27T04:07:49;98443.00;;;28.38;38.10
44148;BME280;29810;55.848;37.368;2023-04-27T04:10:52;98434.00;;;28.89;36.82
44148;BME280;29810;55.848;37.368;2023-04-27T04:13:57;98433.59;;;29.43;36.35
44148;BME280;29810;55.848;37.368;2023-04-27T04:17:00;98432.31;;;29.73;35.73
44148;BME280;29810;55.848;37.368;2023-04-27T04:20:02;98434.59;;;30.25;35.09
44148;BME280;29810;55.848;37.368;2023-04-27T04:23:08;98439.03;;;30.93;33.58
44148;BME280;29810;55.848;37.368;2023-04-27T04:26:09;98432.97;;;31.58;32.83
44148;BME280;29810;55.848;37.368;2023-04-27T04:29:11;98440.72;;;32.00;31.89
44148;BME280;29810;55.848;37.368;2023-04-27T04:32:12;98443.47;;;32.32;31.26
44148;BME280;29810;55.848;37.368;2023-04-27T04:35:17;98442.88;;;32.62;29.84
44148;BME280;29810;55.848;37.368;2023-04-27T04:38:19;98445.19;;;32.90;29.14
44148;BME280;29810;55.848;37.368;2023-04-27T04:41:21;98445.72;;;33.24;29.18
44148;BME280;29810;55.848;37.368;2023-04-27T04:44:23;98447.25;;;33.57;28.67
44148;BME280;29810;55.848;37.368;2023-04-27T04:47:25;98441.72;;;33.89;27.56
44148;BME280;29810;55.848;37.368;2023-04-27T04:50:27;98447.16;;;34.20;27.68
44148;BME280;29810;55.848;37.368;2023-04-27T04:53:33;98440.06;;;34.37;27.45
44148;BME280;29810;55.848;37.368;2023-04-27T04:56:34;98442.28;;;34.71;27.15
44148;BME280;29810;55.848;37.368;2023-04-27T04:59:36;98447.66;;;35.25;26.04
44148;BME280;29810;55.848;37.368;2023-04-27T05:02:37;98450.22;;;35.67;25.15
44148;BME280;29810;55.848;37.368;2023-04-27T05:05:38;98445.16;;;36.11;24.44
44148;BME280;29810;55.848;37.368;2023-04-27T05:08:39;98443.19;;;36.36;24.81
44148;BME280;29810;55.848;37.368;2023-04-27T05:11:41;98444.88;;;36.71;23.89
44148;BME280;29810;55.848;37.368;2023-04-27T05:14:42;98451.16;;;36.88;22.26
44148;BME280;29810;55.848;37.368;2023-04-27T05:17:44;98461.59;;;36.96;22.52
44148;BME280;29810;55.848;37.368;2023-04-27T05:20:45;98465.12;;;36.97;19.72
44148;BME280;29810;55.848;37.368;2023-04-27T05:23:46;98467.34;;;36.66;23.08
44148;BME280;29810;55.848;37.368;2023-04-27T05:26:48;98467.50;;;36.76;23.01
44148;BME280;29810;55.848;37.368;2023-04-27T05:29:49;98463.22;;;36.80;21.31
44148;BME280;29810;55.848;37.368;2023-04-27T05:32:50;98473.16;;;36.75;21.75
44148;BME280;29810;55.848;37.368;2023-04-27T05:35:51;98473.69;;;36.89;21.12
44148;BME280;29810;55.848;37.368;2023-04-27T05:38:53;98465.38;;;37.12;22.12
44148;BME280;29810;55.848;37.368;2023-04-27T05:41:54;98464.81;;;37.27;19.87
44148;BME280;29810;55.848;37.368;2023-04-27T05:44:56;98466.59;;;37.22;20.77
44148;BME280;29810;55.848;37.368;2023-04-27T05:47:57;98465.91;;;36.46;21.58
44148;BME280;29810;55.848;37.368;2023-04-27T05:50:59;98470.63;;;35.46;21.91
44148;BME280;29810;55.848;37.368;2023-04-27T05:54:01;98471.06;;;34.53;18.54
44148;BME280;29810;55.848;37.368;2023-04-27T05:57:02;98481.63;;;33.50;22.72
44148;BME280;29810;55.848;37.368;2023-04-27T06:00:04;98479.59;;;33.20;20.76
44148;BME280;29810;55.848;37.368;2023-04-27T06:03:13;98485.03;;;32.88;21.88
44148;BME280;29810;55.848;37.368;2023-04-27T06:06:14;98473.16;;;32.64;22.44
44148;BME280;29810;55.848;37.368;2023-04-27T06:09:15;98477.97;;;32.55;23.42
44148;BME280;29810;55.848;37.368;2023-04-27T06:12:16;98475.56;;;31.95;24.62
44148;BME280;29810;55.848;37.368;2023-04-27T06:15:18;98489.56;;;29.81;26.64
44148;BME280;29810;55.848;37.368;2023-04-27T06:18:19;98507.44;;;27.40;29.88
44148;BME280;29810;55.848;37.368;2023-04-27T06:21:20;98507.44;;;25.68;30.62
44148;BME280;29810;55.848;37.368;2023-04-27T06:24:22;98525.31;;;24.34;32.63
44148;BME280;29810;55.848;37.368;2023-04-27T06:27:23;98522.75;;;23.55;33.49
44148;BME280;29810;55.848;37.368;2023-04-27T06:30:24;98524.06;;;22.89;34.49
44148;BME280;29810;55.848;37.368;2023-04-27T06:36:26;98524.97;;;21.68;36.14
44148;BME280;29810;55.848;37.368;2023-04-27T06:39:28;98539.28;;;20.89;37.23
44148;BME280;29810;55.848;37.368;2023-04-27T06:42:29;98534.81;;;20.79;37.34
44148;BME280;29810;55.848;37.368;2023-04-27T06:45:30;98541.16;;;20.67;37.64
44148;BME280;29810;55.848;37.368;2023-04-27T06:48:32;98539.34;;;20.58;37.89
44148;BME280;29810;55.848;37.368;2023-04-27T06:51:33;98540.72;;;20.52;37.59
44148;BME280;29810;55.848;37.368;2023-04-27T06:54:34;98533.31;;;20.56;37.35
44148;BME280;29810;55.848;37.368;2023-04-27T06:57:35;98533.31;;;20.56;37.29
44148;BME280;29810;55.848;37.368;2023-04-27T07:00:37;98549.06;;;20.47;37.51
44148;BME280;29810;55.848;37.368;2023-04-27T07:03:38;98538.34;;;20.39;37.49
44148;BME280;29810;55.848;37.368;2023-04-27T07:06:39;98546.56;;;20.36;37.53
44148;BME280;29810;55.848;37.368;2023-04-27T07:09:41;98550.31;;;20.33;37.62
44148;BME280;29810;55.848;37.368;2023-04-27T07:12:42;98549.69;;;20.20;37.50
44148;BME280;29810;55.848;37.368;2023-04-27T07:15:43;98544.31;;;20.00;37.69
44148;BME280;29810;55.848;37.368;2023-04-27T07:18:45;98545.97;;;19.92;37.60
44148;BME280;29810;55.848;37.368;2023-04-27T07:21:46;98542.09;;;19.96;37.77
44148;BME280;29810;55.848;37.368;2023-04-27T07:24:48;98538.22;;;20.00;37.53
44148;BME280;29810;55.848;37.368;2023-04-27T07:27:49;98538.03;;;19.92;37.56
44148;BME280;29810;55.848;37.368;2023-04-27T07:30:50;98533.12;;;19.87;37.81
44148;BME280;29810;55.848;37.368;2023-04-27T07:33:52;98547.63;;;19.72;37.28
44148;BME280;29810;55.848;37.368;2023-04-27T07:36:53;98536.25;;;19.71;37.39
44148;BME280;29810;55.848;37.368;2023-04-27T07:39:54;98541.75;;;19.68;37.37
44148;BME280;29810;55.848;37.368;2023-04-27T07:42:56;98539.81;;;19.81;37.55
44148;BME280;29810;55.848;37.368;2023-04-27T07:45:58;98544.75;;;19.96;37.42
44148;BME280;29810;55.848;37.368;2023-04-27T07:48:59;98550.50;;;20.11;37.16
44148;BME280;29810;55.848;37.368;2023-04-27T07:52:00;98550.69;;;20.29;36.62
44148;BME280;29810;55.848;37.368;2023-04-27T07:55:02;98550.41;;;20.32;36.61
44148;BME280;29810;55.848;37.368;2023-04-27T07:58:04;98542.22;;;20.35;37.11
44148;BME280;29810;55.848;37.368;2023-04-27T08:01:05;98545.63;;;20.16;36.47
44148;BME280;29810;55.848;37.368;2023-04-27T08:04:07;98551.34;;;20.11;36.98
44148;BME280;29810;55.848;37.368;2023-04-27T08:07:08;98549.44;;;20.23;35.75
44148;BME280;29810;55.848;37.368;2023-04-27T08:10:10;98548.25;;;20.57;36.26
44148;BME280;29810;55.848;37.368;2023-04-27T08:13:11;98547.63;;;20.94;35.58
44148;BME280;29810;55.848;37.368;2023-04-27T08:16:12;98546.50;;;20.87;34.89
44148;BME280;29810;55.848;37.368;2023-04-27T08:19:13;98549.28;;;20.75;35.93
44148;BME280;29810;55.848;37.368;2023-04-27T08:22:16;98548.66;;;20.52;34.83
44148;BME280;29810;55.848;37.368;2023-04-27T08:25:17;98541.12;;;20.47;35.96
44148;BME280;29810;55.848;37.368;2023-04-27T08:28:18;98552.00;;;20.44;35.46
44148;BME280;29810;55.848;37.368;2023-04-27T08:31:19;98547.13;;;20.49;35.88
44148;BME280;29810;55.848;37.368;2023-04-27T08:34:22;98549.22;;;20.56;35.38
44148;BME280;29810;55.848;37.368;2023-04-27T08:37:23;98551.31;;;20.52;34.88
44148;BME280;29810;55.848;37.368;2023-04-27T08:40:24;98552.03;;;20.64;35.55
44148;BME280;29810;55.848;37.368;2023-04-27T08:43:25;98543.81;;;20.57;34.65
44148;BME280;29810;55.848;37.368;2023-04-27T08:46:28;98546.22;;;20.70;35.47
44148;BME280;29810;55.848;37.368;2023-04-27T08:49:31;98552.34;;;20.80;35.31
44148;BME280;29810;55.848;37.368;2023-04-27T08:52:32;98547.06;;;20.90;35.48
44148;BME280;29810;55.848;37.368;2023-04-27T08:55:33;98542.34;;;20.94;35.54
44148;BME280;29810;55.848;37.368;2023-04-27T08:58:38;98553.63;;;20.86;35.87
44148;BME280;29810;55.848;37.368;2023-04-27T09:01:45;98551.13;;;21.04;35.87
44148;BME280;29810;55.848;37.368;2023-04-27T09:04:48;98546.50;;;21.26;35.38
44148;BME280;29810;55.848;37.368;2023-04-27T09:08:01;98543.69;;;21.37;35.46
44148;BME280;29810;55.848;37.368;2023-04-27T09:11:05;98538.09;;;21.60;35.75
44148;BME280;29810;55.848;37.368;2023-04-27T09:14:17;98531.41;;;21.65;35.58
44148;BME280;29810;55.848;37.368;2023-04-27T09:17:23;98537.56;;;21.27;35.86
44148;BME280;29810;55.848;37.368;2023-04-27T09:20:24;98540.75;;;21.40;36.09
44148;BME280;29810;55.848;37.368;2023-04-27T09:23:30;98539.38;;;21.56;35.98
44148;BME280;29810;55.848;37.368;2023-04-27T09:26:31;98540.03;;;21.77;35.64
44148;BME280;29810;55.848;37.368;2023-04-27T09:29:33;98535.56;;;22.06;35.66
44148;BME280;29810;55.848;37.368;2023-04-27T09:32:35;98527.25;;;22.19;35.09
44148;BME280;29810;55.848;37.368;2023-04-27T09:35:36;98527.22;;;22.28;35.39
44148;BME280;29810;55.848;37.368;2023-04-27T09:38:37;98525.16;;;22.50;35.14
44148;BME280;29810;55.848;37.368;2023-04-27T09:41:39;98527.38;;;22.91;34.73
44148;BME280;29810;55.848;37.368;2023-04-27T09:44:41;98512.63;;;23.32;34.79
44148;BME280;29810;55.848;37.368;2023-04-27T09:47:42;98515.97;;;23.61;34.06
44148;BME280;29810;55.848;37.368;2023-04-27T09:50:44;98525.69;;;23.78;33.95
44148;BME280;29810;55.848;37.368;2023-04-27T09:53:48;98521.25;;;23.87;32.45
44148;BME280;29810;55.848;37.368;2023-04-27T09:56:54;98521.41;;;23.51;34.02
44148;BME280;29810;55.848;37.368;2023-04-27T10:03:04;98524.34;;;23.74;33.10
44148;BME280;29810;55.848;37.368;2023-04-27T10:09:33;98513.28;;;23.87;32.38
44148;BME280;29810;55.848;37.368;2023-04-27T10:12:36;98531.47;;;23.92;33.34
44148;BME280;29810;55.848;37.368;2023-04-27T10:15:38;98520.66;;;23.67;30.17
44148;BME280;29810;55.848;37.368;2023-04-27T10:18:49;98518.22;;;23.47;31.85
44148;BME280;29810;55.848;37.368;2023-04-27T10:21:54;98519.34;;;23.19;31.66
44148;BME280;29810;55.848;37.368;2023-04-27T10:24:57;98521.13;;;23.36;32.85
44148;BME280;29810;55.848;37.368;2023-04-27T10:27:58;98518.31;;;23.64;32.82
44148;BME280;29810;55.848;37.368;2023-04-27T10:31:08;98516.09;;;23.86;32.91
44148;BME280;29810;55.848;37.368;2023-04-27T10:34:10;98519.50;;;23.96;32.96
44148;BME280;29810;55.848;37.368;2023-04-27T10:37:11;98506.53;;;23.93;32.44
44148;BME280;29810;55.848;37.368;2023-04-27T10:40:14;98511.88;;;23.93;32.93
44148;BME280;29810;55.848;37.368;2023-04-27T10:43:17;98525.66;;;23.70;32.66
44148;BME280;29810;55.848;37.368;2023-04-27T10:46:18;98533.09;;;23.14;33.25
44148;BME280;29810;55.848;37.368;2023-04-27T10:49:20;98525.34;;;22.66;32.21
44148;BME280;29810;55.848;37.368;2023-04-27T10:52:21;98524.19;;;22.69;33.57
44148;BME280;29810;55.848;37.368;2023-04-27T10:55:23;98522.81;;;22.47;31.90
44148;BME280;29810;55.848;37.368;2023-04-27T10:58:24;98523.59;;;22.75;33.23
44148;BME280;29810;55.848;37.368;2023-04-27T11:01:26;98524.34;;;23.22;32.78
44148;BME280;29810;55.848;37.368;2023-04-27T11:04:36;98529.19;;;23.71;32.57
44148;BME280;29810;55.848;37.368;2023-04-27T11:07:38;98525.22;;;23.48;32.13
44148;BME280;29810;55.848;37.368;2023-04-27T11:10:41;98530.09;;;23.35;32.56
44148;BME280;29810;55.848;37.368;2023-04-27T11:13:43;98528.28;;;23.62;32.31
44148;BME280;29810;55.848;37.368;2023-04-27T11:16:45;98537.66;;;23.48;32.55
44148;BME280;29810;55.848;37.368;2023-04-27T11:19:47;98527.44;;;23.35;33.08
44148;BME280;29810;55.848;37.368;2023-04-27T11:22:48;98524.34;;;23.22;33.49
44148;BME280;29810;55.848;37.368;2023-04-27T11:25:49;98524.34;;;23.22;33.51
44148;BME280;29810;55.848;37.368;2023-04-27T11:28:57;98526.00;;;23.05;33.61
44148;BME280;29810;55.848;37.368;2023-04-27T11:31:59;98538.31;;;22.88;33.11
44148;BME280;29810;55.848;37.368;2023-04-27T11:35:01;98532.03;;;22.89;33.88
44148;BME280;29810;55.848;37.368;2023-04-27T11:38:03;98539.69;;;22.92;34.08
44148;BME280;29810;55.848;37.368;2023-04-27T11:41:05;98538.31;;;22.70;34.02
44148;BME280;29810;55.848;37.368;2023-04-27T11:44:08;98533.59;;;22.45;34.10
44148;BME280;29810;55.848;37.368;2023-04-27T11:47:14;98529.72;;;22.30;34.59
44148;BME280;29810;55.848;37.368;2023-04-27T11:50:16;98538.66;;;22.29;34.60
44148;BME280;29810;55.848;37.368;2023-04-27T11:53:27;98533.16;;;22.12;34.66
44148;BME280;29810;55.848;37.368;2023-04-27T11:56:39;98539.16;;;22.14;34.95
44148;BME280;29810;55.848;37.368;2023-04-27T11:59:41;98542.19;;;21.92;35.05
44148;BME280;29810;55.848;37.368;2023-04-27T12:02:42;98546.84;;;21.80;35.21
44148;BME280;29810;55.848;37.368;2023-04-27T12:05:47;98544.50;;;21.67;35.31
44148;BME280;29810;55.848;37.368;2023-04-27T12:08:49;98545.09;;;21.61;35.25
44148;BME280;29810;55.848;37.368;2023-04-27T12:11:51;98552.16;;;21.80;34.89
44148;BME280;29810;55.848;37.368;2023-04-27T12:14:54;98541.12;;;22.12;34.69
44148;BME280;29810;55.848;37.368;2023-04-27T12:17:56;98541.09;;;22.50;33.92
44148;BME280;29810;55.848;37.368;2023-04-27T12:20:57;98529.06;;;22.56;33.40
44148;BME280;29810;55.848;37.368;2023-04-27T12:23:58;98529.56;;;22.41;34.15
44148;BME280;29810;55.848;37.368;2023-04-27T12:26:59;98523.56;;;22.39;33.83
44148;BME280;29810;55.848;37.368;2023-04-27T12:30:01;98538.13;;;22.25;34.43
44148;BME280;29810;55.848;37.368;2023-04-27T12:33:04;98537.28;;;22.25;34.38
44148;BME280;29810;55.848;37.368;2023-04-27T12:36:10;98532.56;;;22.19;34.50
44148;BME280;29810;55.848;37.368;2023-04-27T12:39:13;98533.12;;;21.94;34.46
44148;BME280;29810;55.848;37.368;2023-04-27T12:42:15;98533.84;;;21.87;35.02
44148;BME280;29810;55.848;37.368;2023-04-27T12:45:19;98533.12;;;21.84;34.97
44148;BME280;29810;55.848;37.368;2023-04-27T12:48:21;98528.84;;;21.74;35.22
44148;BME280;29810;55.848;37.368;2023-04-27T12:51:23;98518.91;;;21.76;35.44
44148;BME280;29810;55.848;37.368;2023-04-27T12:54:24;98523.81;;;21.80;35.34
44148;BME280;29810;55.848;37.368;2023-04-27T12:57:26;98515.66;;;21.92;34.99
44148;BME280;29810;55.848;37.368;2023-04-27T13:00:27;98510.75;;;21.97;34.58
44148;BME280;29810;55.848;37.368;2023-04-27T13:03:29;98517.53;;;21.72;33.87
44148;BME280;29810;55.848;37.368;2023-04-27T13:06:31;98514.47;;;21.76;33.86
44148;BME280;29810;55.848;37.368;2023-04-27T13:09:32;98514.94;;;21.62;33.47
44148;BME280;29810;55.848;37.368;2023-04-27T13:12:33;98516.63;;;21.63;34.54
44148;BME280;29810;55.848;37.368;2023-04-27T13:15:34;98511.88;;;21.57;33.95
44148;BME280;29810;55.848;37.368;2023-04-27T13:18:38;98514.69;;;21.55;33.36
44148;BME280;29810;55.848;37.368;2023-04-27T13:21:42;98513.81;;;21.55;34.11
44148;BME280;29810;55.848;37.368;2023-04-27T13:24:43;98509.88;;;21.69;34.28
44148;BME280;29810;55.848;37.368;2023-04-27T13:27:45;98510.97;;;21.76;34.27
44148;BME280;29810;55.848;37.368;2023-04-27T13:30:46;98523.88;;;21.61;33.98
44148;BME280;29810;55.848;37.368;2023-04-27T13:33:48;98517.59;;;21.62;34.42
44148;BME280;29810;55.848;37.368;2023-04-27T13:36:53;98512.84;;;21.65;34.29
44148;BME280;29810;55.848;37.368;2023-04-27T13:39:54;98509.91;;;21.59;34.02
44148;BME280;29810;55.848;37.368;2023-04-27T13:42:56;98518.41;;;21.53;34.64
44148;BME280;29810;55.848;37.368;2023-04-27T13:45:57;98521.34;;;21.49;34.52
44148;BME280;29810;55.848;37.368;2023-04-27T13:48:59;98513.28;;;21.41;34.89
44148;BME280;29810;55.848;37.368;2023-04-27T13:52:00;98514.94;;;21.62;34.77
44148;BME280;29810;55.848;37.368;2023-04-27T13:55:02;98524.09;;;21.77;34.48
44148;BME280;29810;55.848;37.368;2023-04-27T13:58:05;98520.28;;;21.90;34.49
44148;BME280;29810;55.848;37.368;2023-04-27T14:01:06;98521.84;;;21.82;34.50
44148;BME280;29810;55.848;37.368;2023-04-27T14:04:08;98517.53;;;21.72;34.55
44148;BME280;29810;55.848;37.368;2023-04-27T14:07:09;98528.03;;;21.63;34.69
44148;BME280;29810;55.848;37.368;2023-04-27T14:10:11;98524.13;;;21.48;35.31
44148;BME280;29810;55.848;37.368;2023-04-27T14:13:14;98527.94;;;21.26;35.52
44148;BME280;29810;55.848;37.368;2023-04-27T14:16:15;98534.09;;;21.26;35.44
44148;BME280;29810;55.848;37.368;2023-04-27T14:19:16;98532.84;;;21.21;35.86
44148;BME280;29810;55.848;37.368;2023-04-27T14:22:20;98530.31;;;21.39;35.63
44148;BME280;29810;55.848;37.368;2023-04-27T14:25:21;98529.69;;;21.74;35.23
44148;BME280;29810;55.848;37.368;2023-04-27T14:28:23;98521.53;;;21.86;35.04
44148;BME280;29810;55.848;37.368;2023-04-27T14:31:24;98513.34;;;21.79;35.12
44148;BME280;29810;55.848;37.368;2023-04-27T14:34:26;98529.72;;;21.64;35.37
44148;BME280;29810;55.848;37.368;2023-04-27T14:37:27;98517.72;;;21.60;35.08
44148;BME280;29810;55.848;37.368;2023-04-27T14:40:29;98525.53;;;21.62;35.18
44148;BME280;29810;55.848;37.368;2023-04-27T14:43:31;98526.19;;;21.74;35.08
44148;BME280;29810;55.848;37.368;2023-04-27T14:46:32;98520.16;;;21.81;35.06
44148;BME280;29810;55.848;37.368;2023-04-27T14:49:34;98524.38;;;21.74;35.01
44148;BME280;29810;55.848;37.368;2023-04-27T14:52:35;98525.03;;;21.29;35.64
44148;BME280;29810;55.848;37.368;2023-04-27T14:55:36;98538.00;;;20.73;36.31
44148;BME280;29810;55.848;37.368;2023-04-27T14:58:38;98532.78;;;20.62;36.83
44148;BME280;29810;55.848;37.368;2023-04-27T15:01:39;98539.75;;;20.53;36.85
44148;BME280;29810;55.848;37.368;2023-04-27T15:04:41;98532.50;;;20.55;36.83
44148;BME280;29810;55.848;37.368;2023-04-27T15:07:48;98533.84;;;20.40;37.28
44148;BME280;29810;55.848;37.368;2023-04-27T15:10:50;98536.75;;;20.27;37.36
44148;BME280;29810;55.848;37.368;2023-04-27T15:13:51;98536.22;;;20.33;37.34
44148;BME280;29810;55.848;37.368;2023-04-27T15:17:00;98535.84;;;20.47;37.05
44148;BME280;29810;55.848;37.368;2023-04-27T15:20:01;98536.16;;;20.64;37.16
44148;BME280;29810;55.848;37.368;2023-04-27T15:23:04;98532.69;;;20.73;36.88
44148;BME280;29810;55.848;37.368;2023-04-27T15:26:05;98530.56;;;20.67;36.82
44148;BME280;29810;55.848;37.368;2023-04-27T15:29:06;98528.59;;;20.49;37.01
44148;BME280;29810;55.848;37.368;2023-04-27T15:32:07;98535.53;;;20.31;37.28
44148;BME280;29810;55.848;37.368;2023-04-27T15:35:09;98531.59;;;20.15;37.47
44148;BME280;29810;55.848;37.368;2023-04-27T15:38:10;98534.59;;;20.01;37.69
44148;BME280;29810;55.848;37.368;2023-04-27T15:41:12;98536.75;;;19.86;37.87
44148;BME280;29810;55.848;37.368;2023-04-27T15:44:14;98540.56;;;19.72;38.45
44148;BME280;29810;55.848;37.368;2023-04-27T15:47:15;98537.03;;;19.62;38.25
44148;BME280;29810;55.848;37.368;2023-04-27T15:50:16;98543.91;;;19.53;38.36
44148;BME280;29810;55.848;37.368;2023-04-27T15:53:18;98547.06;;;19.47;38.70
44148;BME280;29810;55.848;37.368;2023-04-27T15:56:19;98548.81;;;19.36;38.93
44148;BME280;29810;55.848;37.368;2023-04-27T15:59:22;98544.16;;;19.29;38.85
44148;BME280;29810;55.848;37.368;2023-04-27T16:02:23;98556.59;;;19.17;39.41
44148;BME280;29810;55.848;37.368;2023-04-27T16:05:24;98553.19;;;19.05;39.92